sensor_id;sensor_type;location;lat;lon;timestamp;pressure;altitude;pressure_sealevel;temperature
19040;BMP180;9652;49.014;12.052;2024-03-02T00:00:51;96788.00;;;10.50
19040;BMP180;9652;49.014;12.052;2024-03-02T00:03:19;96813.00;;;10.50
19040;BMP180;9652;49.014;12.052;2024-03-02T00:05:50;96818.00;;;10.50
19040;BMP180;9652;49.014;12.052;2024-03-02T00:08:24;96816.00;;;10.50
19040;BMP180;9652;49.014;12.052;2024-03-02T00:10:57;96813.00;;;10.50
19040;BMP180;9652;49.014;12.052;2024-03-02T00:13:24;96797.00;;;10.50
19040;BMP180;9652;49.014;12.052;2024-03-02T00:15:53;96819.00;;;10.50
19040;BMP180;9652;49.014;12.052;2024-03-02T00:18:26;96813.00;;;10.50
19040;BMP180;9652;49.014;12.052;2024-03-02T00:20:55;96809.00;;;10.50
19040;BMP180;9652;49.014;12.052;2024-03-02T00:23:27;96790.00;;;10.50
19040;BMP180;9652;49.014;12.052;2024-03-02T00:25:55;96815.00;;;10.50
19040;BMP180;9652;49.014;12.052;2024-03-02T00:28:25;96825.00;;;10.50
19040;BMP180;9652;49.014;12.052;2024-03-02T00:30:59;96813.00;;;10.50
19040;BMP180;9652;49.014;12.052;2024-03-02T00:33:33;96800.00;;;10.40
19040;BMP180;9652;49.014;12.052;2024-03-02T00:36:01;96819.00;;;10.50
19040;BMP180;9652;49.014;12.052;2024-03-02T00:38:30;96812.00;;;10.50
19040;BMP180;9652;49.014;12.052;2024-03-02T00:40:59;96791.00;;;10.40
19040;BMP180;9652;49.014;12.052;2024-03-02T00:44:01;96769.00;;;10.40
19040;BMP180;9652;49.014;12.052;2024-03-02T00:46:33;96813.00;;;10.40
19040;BMP180;9652;49.014;12.052;2024-03-02T00:49:02;96816.00;;;10.40
19040;BMP180;9652;49.014;12.052;2024-03-02T00:51:32;96809.00;;;10.40
19040;BMP180;9652;49.014;12.052;2024-03-02T00:54:03;96796.00;;;10.40
19040;BMP180;9652;49.014;12.052;2024-03-02T00:56:31;96783.00;;;10.40
19040;BMP180;9652;49.014;12.052;2024-03-02T00:58:59;96797.00;;;10.40
19040;BMP180;9652;49.014;12.052;2024-03-02T01:01:26;96832.00;;;10.40
19040;BMP180;9652;49.014;12.052;2024-03-02T01:03:54;96805.00;;;10.40
19040;BMP180;9652;49.014;12.052;2024-03-02T01:06:21;96807.00;;;10.40
19040;BMP180;9652;49.014;12.052;2024-03-02T01:08:49;96808.00;;;10.40
19040;BMP180;9652;49.014;12.052;2024-03-02T01:11:19;96776.00;;;10.40
19040;BMP180;9652;49.014;12.052;2024-03-02T01:13:48;96800.00;;;10.40
19040;BMP180;9652;49.014;12.052;2024-03-02T01:16:15;96801.00;;;10.40
19040;BMP180;9652;49.014;12.052;2024-03-02T01:18:42;96810.00;;;10.40
19040;BMP180;9652;49.014;12.052;2024-03-02T01:21:09;96801.00;;;10.40
19040;BMP180;9652;49.014;12.052;2024-03-02T01:23:36;96787.00;;;10.40
19040;BMP180;9652;49.014;12.052;2024-03-02T01:26:03;96794.00;;;10.30
19040;BMP180;9652;49.014;12.052;2024-03-02T01:28:33;96791.00;;;10.40
19040;BMP180;9652;49.014;12.052;2024-03-02T01:31:00;96794.00;;;10.40
19040;BMP180;9652;49.014;12.052;2024-03-02T01:33:27;96804.00;;;10.40
19040;BMP180;9652;49.014;12.052;2024-03-02T01:35:54;96793.00;;;10.40
19040;BMP180;9652;49.014;12.052;2024-03-02T01:38:21;96796.00;;;10.40
19040;BMP180;9652;49.014;12.052;2024-03-02T01:40:48;96801.00;;;10.40
19040;BMP180;9652;49.014;12.052;2024-03-02T01:43:16;96792.00;;;10.40
19040;BMP180;9652;49.014;12.052;2024-03-02T01:45:44;96797.00;;;10.40
19040;BMP180;9652;49.014;12.052;2024-03-02T01:48:11;96742.00;;;10.40
19040;BMP180;9652;49.014;12.052;2024-03-02T01:50:39;96794.00;;;10.40
19040;BMP180;9652;49.014;12.052;2024-03-02T01:53:08;96786.00;;;10.40
19040;BMP180;9652;49.014;12.052;2024-03-02T01:55:35;96797.00;;;10.30
19040;BMP180;9652;49.014;12.052;2024-03-02T01:58:03;96796.00;;;10.30
19040;BMP180;9652;49.014;12.052;2024-03-02T02:00:30;96787.00;;;10.30
19040;BMP180;9652;49.014;12.052;2024-03-02T02:02:59;96786.00;;;10.30
19040;BMP180;9652;49.014;12.052;2024-03-02T02:05:26;96781.00;;;10.30
19040;BMP180;9652;49.014;12.052;2024-03-02T02:07:53;96792.00;;;10.30
19040;BMP180;9652;49.014;12.052;2024-03-02T02:10:21;96791.00;;;10.30
19040;BMP180;9652;49.014;12.052;2024-03-02T02:12:48;96785.00;;;10.30
19040;BMP180;9652;49.014;12.052;2024-03-02T02:15:26;96799.00;;;10.30
19040;BMP180;9652;49.014;12.052;2024-03-02T02:17:53;96800.00;;;10.30
19040;BMP180;9652;49.014;12.052;2024-03-02T02:20:22;96780.00;;;10.30
19040;BMP180;9652;49.014;12.052;2024-03-02T02:22:58;96790.00;;;10.30
19040;BMP180;9652;49.014;12.052;2024-03-02T02:25:26;96796.00;;;10.30
19040;BMP180;9652;49.014;12.052;2024-03-02T02:27:54;96797.00;;;10.40
19040;BMP180;9652;49.014;12.052;2024-03-02T02:30:25;96797.00;;;10.40
19040;BMP180;9652;49.014;12.052;2024-03-02T02:32:53;96791.00;;;10.40
19040;BMP180;9652;49.014;12.052;2024-03-02T02:35:20;96779.00;;;10.40
19040;BMP180;9652;49.014;12.052;2024-03-02T02:37:49;96784.00;;;10.40
19040;BMP180;9652;49.014;12.052;2024-03-02T02:40:18;96777.00;;;10.40
19040;BMP180;9652;49.014;12.052;2024-03-02T02:42:46;96784.00;;;10.40
19040;BMP180;9652;49.014;12.052;2024-03-02T02:45:13;96779.00;;;10.50
19040;BMP180;9652;49.014;12.052;2024-03-02T02:47:41;96782.00;;;10.50
19040;BMP180;9652;49.014;12.052;2024-03-02T02:50:09;96782.00;;;10.40
19040;BMP180;9652;49.014;12.052;2024-03-02T02:52:39;96779.00;;;10.40
19040;BMP180;9652;49.014;12.052;2024-03-02T02:55:08;96774.00;;;10.40
19040;BMP180;9652;49.014;12.052;2024-03-02T02:57:39;96783.00;;;10.40
19040;BMP180;9652;49.014;12.052;2024-03-02T03:00:10;96775.00;;;10.40
19040;BMP180;9652;49.014;12.052;2024-03-02T03:02:40;96760.00;;;10.40
19040;BMP180;9652;49.014;12.052;2024-03-02T03:05:09;96774.00;;;10.40
19040;BMP180;9652;49.014;12.052;2024-03-02T03:07:37;96765.00;;;10.40
19040;BMP180;9652;49.014;12.052;2024-03-02T03:10:07;96785.00;;;10.30
19040;BMP180;9652;49.014;12.052;2024-03-02T03:12:36;96775.00;;;10.40
19040;BMP180;9652;49.014;12.052;2024-03-02T03:15:04;96758.00;;;10.40
19040;BMP180;9652;49.014;12.052;2024-03-02T03:17:32;96644.00;;;10.40
19040;BMP180;9652;49.014;12.052;2024-03-02T03:19:59;96760.00;;;10.30
19040;BMP180;9652;49.014;12.052;2024-03-02T03:22:28;96781.00;;;10.30
19040;BMP180;9652;49.014;12.052;2024-03-02T03:24:55;96768.00;;;10.30
19040;BMP180;9652;49.014;12.052;2024-03-02T03:27:22;96774.00;;;10.30
19040;BMP180;9652;49.014;12.052;2024-03-02T03:29:51;96784.00;;;10.30
19040;BMP180;9652;49.014;12.052;2024-03-02T03:32:18;96778.00;;;10.30
19040;BMP180;9652;49.014;12.052;2024-03-02T03:34:45;96764.00;;;10.30
19040;BMP180;9652;49.014;12.052;2024-03-02T03:37:13;96774.00;;;10.10
19040;BMP180;9652;49.014;12.052;2024-03-02T03:39:41;96761.00;;;10.30
19040;BMP180;9652;49.014;12.052;2024-03-02T03:42:08;96776.00;;;10.20
19040;BMP180;9652;49.014;12.052;2024-03-02T03:44:35;96777.00;;;10.30
19040;BMP180;9652;49.014;12.052;2024-03-02T03:47:04;96777.00;;;10.30
19040;BMP180;9652;49.014;12.052;2024-03-02T03:49:31;96767.00;;;10.30
19040;BMP180;9652;49.014;12.052;2024-03-02T03:51:58;96771.00;;;10.30
19040;BMP180;9652;49.014;12.052;2024-03-02T03:54:26;96757.00;;;10.30
19040;BMP180;9652;49.014;12.052;2024-03-02T03:56:53;96767.00;;;10.30
19040;BMP180;9652;49.014;12.052;2024-03-02T03:59:20;96767.00;;;10.30
19040;BMP180;9652;49.014;12.052;2024-03-02T04:01:47;96766.00;;;10.30
19040;BMP180;9652;49.014;12.052;2024-03-02T04:04:15;96769.00;;;10.30
19040;BMP180;9652;49.014;12.052;2024-03-02T04:06:43;96781.00;;;10.30
19040;BMP180;9652;49.014;12.052;2024-03-02T04:09:10;96775.00;;;10.30
19040;BMP180;9652;49.014;12.052;2024-03-02T04:11:37;96768.00;;;10.20
19040;BMP180;9652;49.014;12.052;2024-03-02T04:14:04;96784.00;;;10.20
19040;BMP180;9652;49.014;12.052;2024-03-02T04:16:32;96773.00;;;10.20
19040;BMP180;9652;49.014;12.052;2024-03-02T04:18:59;96784.00;;;10.20
19040;BMP180;9652;49.014;12.052;2024-03-02T04:21:27;96782.00;;;10.20
19040;BMP180;9652;49.014;12.052;2024-03-02T04:23:54;96784.00;;;10.30
19040;BMP180;9652;49.014;12.052;2024-03-02T04:26:24;96798.00;;;10.30
19040;BMP180;9652;49.014;12.052;2024-03-02T04:28:51;96802.00;;;10.30
19040;BMP180;9652;49.014;12.052;2024-03-02T04:31:18;96794.00;;;10.30
19040;BMP180;9652;49.014;12.052;2024-03-02T04:33:45;96792.00;;;10.30
19040;BMP180;9652;49.014;12.052;2024-03-02T04:36:13;96798.00;;;10.30
19040;BMP180;9652;49.014;12.052;2024-03-02T04:38:41;96802.00;;;10.30
19040;BMP180;9652;49.014;12.052;2024-03-02T04:41:08;96795.00;;;10.40
19040;BMP180;9652;49.014;12.052;2024-03-02T04:43:35;96806.00;;;10.40
19040;BMP180;9652;49.014;12.052;2024-03-02T04:46:03;96811.00;;;10.40
19040;BMP180;9652;49.014;12.052;2024-03-02T04:48:30;96819.00;;;10.40
19040;BMP180;9652;49.014;12.052;2024-03-02T04:50:57;96808.00;;;10.40
19040;BMP180;9652;49.014;12.052;2024-03-02T04:53:25;96814.00;;;10.40
19040;BMP180;9652;49.014;12.052;2024-03-02T04:55:53;96810.00;;;10.40
19040;BMP180;9652;49.014;12.052;2024-03-02T04:58:53;96815.00;;;10.40
19040;BMP180;9652;49.014;12.052;2024-03-02T05:01:20;96810.00;;;10.50
19040;BMP180;9652;49.014;12.052;2024-03-02T05:03:47;96820.00;;;10.50
19040;BMP180;9652;49.014;12.052;2024-03-02T05:06:14;96815.00;;;10.50
19040;BMP180;9652;49.014;12.052;2024-03-02T05:08:41;96815.00;;;10.50
19040;BMP180;9652;49.014;12.052;2024-03-02T05:11:11;96813.00;;;10.50
19040;BMP180;9652;49.014;12.052;2024-03-02T05:13:56;96823.00;;;10.50
19040;BMP180;9652;49.014;12.052;2024-03-02T05:16:23;96819.00;;;10.50
19040;BMP180;9652;49.014;12.052;2024-03-02T05:18:50;96818.00;;;10.50
19040;BMP180;9652;49.014;12.052;2024-03-02T05:21:17;96821.00;;;10.50
19040;BMP180;9652;49.014;12.052;2024-03-02T05:23:45;96819.00;;;10.50
19040;BMP180;9652;49.014;12.052;2024-03-02T05:26:13;96824.00;;;10.50
19040;BMP180;9652;49.014;12.052;2024-03-02T05:28:40;96817.00;;;10.50
19040;BMP180;9652;49.014;12.052;2024-03-02T05:31:10;96832.00;;;10.50
19040;BMP180;9652;49.014;12.052;2024-03-02T05:33:37;96829.00;;;10.60
19040;BMP180;9652;49.014;12.052;2024-03-02T05:36:05;96831.00;;;10.60
19040;BMP180;9652;49.014;12.052;2024-03-02T05:38:34;96828.00;;;10.60
19040;BMP180;9652;49.014;12.052;2024-03-02T05:41:02;96822.00;;;10.60
19040;BMP180;9652;49.014;12.052;2024-03-02T05:43:30;96830.00;;;10.60
19040;BMP180;9652;49.014;12.052;2024-03-02T05:45:57;96769.00;;;10.60
19040;BMP180;9652;49.014;12.052;2024-03-02T05:48:24;96832.00;;;10.50
19040;BMP180;9652;49.014;12.052;2024-03-02T05:50:51;96837.00;;;10.50
19040;BMP180;9652;49.014;12.052;2024-03-02T05:53:18;96833.00;;;10.50
19040;BMP180;9652;49.014;12.052;2024-03-02T05:55:45;96844.00;;;10.60
19040;BMP180;9652;49.014;12.052;2024-03-02T05:58:13;96851.00;;;10.50
19040;BMP180;9652;49.014;12.052;2024-03-02T06:00:54;96843.00;;;10.50
19040;BMP180;9652;49.014;12.052;2024-03-02T06:03:22;96846.00;;;10.50
19040;BMP180;9652;49.014;12.052;2024-03-02T06:05:50;96841.00;;;10.50
19040;BMP180;9652;49.014;12.052;2024-03-02T06:08:17;96848.00;;;10.50
19040;BMP180;9652;49.014;12.052;2024-03-02T06:10:44;96830.00;;;10.60
19040;BMP180;9652;49.014;12.052;2024-03-02T06:13:11;96840.00;;;10.60
19040;BMP180;9652;49.014;12.052;2024-03-02T06:15:38;96855.00;;;10.60
19040;BMP180;9652;49.014;12.052;2024-03-02T06:18:07;96848.00;;;10.60
19040;BMP180;9652;49.014;12.052;2024-03-02T06:20:34;96848.00;;;10.60
19040;BMP180;9652;49.014;12.052;2024-03-02T06:23:03;96852.00;;;10.60
19040;BMP180;9652;49.014;12.052;2024-03-02T06:25:31;96846.00;;;10.60
19040;BMP180;9652;49.014;12.052;2024-03-02T06:27:58;96856.00;;;10.60
19040;BMP180;9652;49.014;12.052;2024-03-02T06:30:25;96859.00;;;10.70
19040;BMP180;9652;49.014;12.052;2024-03-02T06:32:52;96855.00;;;10.70
19040;BMP180;9652;49.014;12.052;2024-03-02T06:35:21;96833.00;;;10.70
19040;BMP180;9652;49.014;12.052;2024-03-02T06:37:48;96850.00;;;10.70
19040;BMP180;9652;49.014;12.052;2024-03-02T06:40:15;96843.00;;;10.70
19040;BMP180;9652;49.014;12.052;2024-03-02T06:42:42;96856.00;;;10.70
19040;BMP180;9652;49.014;12.052;2024-03-02T06:45:10;96851.00;;;10.80
19040;BMP180;9652;49.014;12.052;2024-03-02T06:47:37;96854.00;;;10.80
19040;BMP180;9652;49.014;12.052;2024-03-02T06:50:05;96852.00;;;10.80
19040;BMP180;9652;49.014;12.052;2024-03-02T06:52:34;96851.00;;;10.90
19040;BMP180;9652;49.014;12.052;2024-03-02T06:55:01;96850.00;;;10.90
19040;BMP180;9652;49.014;12.052;2024-03-02T06:57:30;96862.00;;;10.90
19040;BMP180;9652;49.014;12.052;2024-03-02T06:59:57;96854.00;;;11.00
19040;BMP180;9652;49.014;12.052;2024-03-02T07:02:24;96862.00;;;11.00
19040;BMP180;9652;49.014;12.052;2024-03-02T07:04:52;96848.00;;;11.00
19040;BMP180;9652;49.014;12.052;2024-03-02T07:07:20;96854.00;;;11.00
19040;BMP180;9652;49.014;12.052;2024-03-02T07:09:48;96850.00;;;11.00
19040;BMP180;9652;49.014;12.052;2024-03-02T07:12:15;96862.00;;;11.10
19040;BMP180;9652;49.014;12.052;2024-03-02T07:14:42;96855.00;;;11.10
19040;BMP180;9652;49.014;12.052;2024-03-02T07:17:44;96863.00;;;11.10
19040;BMP180;9652;49.014;12.052;2024-03-02T07:20:12;96862.00;;;11.10
19040;BMP180;9652;49.014;12.052;2024-03-02T07:22:39;96858.00;;;11.10
19040;BMP180;9652;49.014;12.052;2024-03-02T07:25:08;96865.00;;;11.20
19040;BMP180;9652;49.014;12.052;2024-03-02T07:27:35;96870.00;;;11.20
19040;BMP180;9652;49.014;12.052;2024-03-02T07:30:02;96871.00;;;11.30
19040;BMP180;9652;49.014;12.052;2024-03-02T07:32:29;96874.00;;;11.30
19040;BMP180;9652;49.014;12.052;2024-03-02T07:34:56;96850.00;;;11.30
19040;BMP180;9652;49.014;12.052;2024-03-02T07:37:24;96880.00;;;11.30
19040;BMP180;9652;49.014;12.052;2024-03-02T07:39:51;96883.00;;;11.40
19040;BMP180;9652;49.014;12.052;2024-03-02T07:42:19;96894.00;;;11.40
19040;BMP180;9652;49.014;12.052;2024-03-02T07:44:47;96887.00;;;11.40
19040;BMP180;9652;49.014;12.052;2024-03-02T07:47:14;96882.00;;;11.40
19040;BMP180;9652;49.014;12.052;2024-03-02T07:49:41;96894.00;;;11.40
19040;BMP180;9652;49.014;12.052;2024-03-02T07:52:08;96895.00;;;11.50
19040;BMP180;9652;49.014;12.052;2024-03-02T07:54:35;96898.00;;;11.50
19040;BMP180;9652;49.014;12.052;2024-03-02T07:57:03;96906.00;;;11.50
19040;BMP180;9652;49.014;12.052;2024-03-02T07:59:31;96892.00;;;11.50
19040;BMP180;9652;49.014;12.052;2024-03-02T08:01:58;96900.00;;;11.60
19040;BMP180;9652;49.014;12.052;2024-03-02T08:04:26;96904.00;;;11.70
19040;BMP180;9652;49.014;12.052;2024-03-02T08:06:53;96911.00;;;11.70
19040;BMP180;9652;49.014;12.052;2024-03-02T08:09:21;96916.00;;;11.70
19040;BMP180;9652;49.014;12.052;2024-03-02T08:11:48;96914.00;;;11.80
19040;BMP180;9652;49.014;12.052;2024-03-02T08:14:15;96915.00;;;11.80
19040;BMP180;9652;49.014;12.052;2024-03-02T08:16:44;96916.00;;;11.80
19040;BMP180;9652;49.014;12.052;2024-03-02T08:19:12;96904.00;;;11.80
19040;BMP180;9652;49.014;12.052;2024-03-02T08:21:39;96908.00;;;11.80
19040;BMP180;9652;49.014;12.052;2024-03-02T08:24:07;96922.00;;;11.80
19040;BMP180;9652;49.014;12.052;2024-03-02T08:26:34;96923.00;;;11.80
19040;BMP180;9652;49.014;12.052;2024-03-02T08:29:02;96926.00;;;11.90
19040;BMP180;9652;49.014;12.052;2024-03-02T08:31:29;96906.00;;;11.90
19040;BMP180;9652;49.014;12.052;2024-03-02T08:33:57;96916.00;;;12.00
19040;BMP180;9652;49.014;12.052;2024-03-02T08:36:25;96923.00;;;12.00
19040;BMP180;9652;49.014;12.052;2024-03-02T08:38:52;96927.00;;;12.10
19040;BMP180;9652;49.014;12.052;2024-03-02T08:41:19;96919.00;;;12.20
19040;BMP180;9652;49.014;12.052;2024-03-02T08:43:47;96945.00;;;12.20
19040;BMP180;9652;49.014;12.052;2024-03-02T08:46:14;96921.00;;;12.30
19040;BMP180;9652;49.014;12.052;2024-03-02T08:48:41;96919.00;;;12.40
19040;BMP180;9652;49.014;12.052;2024-03-02T08:51:10;96909.00;;;12.40
19040;BMP180;9652;49.014;12.052;2024-03-02T08:53:37;96926.00;;;12.50
19040;BMP180;9652;49.014;12.052;2024-03-02T08:56:05;96916.00;;;12.60
19040;BMP180;9652;49.014;12.052;2024-03-02T08:58:32;96931.00;;;12.70
19040;BMP180;9652;49.014;12.052;2024-03-02T09:00:59;96932.00;;;12.70
19040;BMP180;9652;49.014;12.052;2024-03-02T09:03:26;96941.00;;;12.80
19040;BMP180;9652;49.014;12.052;2024-03-02T09:05:54;96935.00;;;12.90
19040;BMP180;9652;49.014;12.052;2024-03-02T09:08:22;96928.00;;;12.90
19040;BMP180;9652;49.014;12.052;2024-03-02T09:10:50;96924.00;;;13.00
19040;BMP180;9652;49.014;12.052;2024-03-02T09:13:17;96932.00;;;13.10
19040;BMP180;9652;49.014;12.052;2024-03-02T09:15:44;96935.00;;;13.20
19040;BMP180;9652;49.014;12.052;2024-03-02T09:18:11;96915.00;;;13.30
19040;BMP180;9652;49.014;12.052;2024-03-02T09:20:39;96938.00;;;13.30
19040;BMP180;9652;49.014;12.052;2024-03-02T09:23:06;96927.00;;;13.40
19040;BMP180;9652;49.014;12.052;2024-03-02T09:25:34;96938.00;;;13.50
19040;BMP180;9652;49.014;12.052;2024-03-02T09:28:03;96925.00;;;13.50
19040;BMP180;9652;49.014;12.052;2024-03-02T09:30:30;96930.00;;;13.60
19040;BMP180;9652;49.014;12.052;2024-03-02T09:32:57;96948.00;;;13.60
19040;BMP180;9652;49.014;12.052;2024-03-02T09:35:24;96923.00;;;13.70
19040;BMP180;9652;49.014;12.052;2024-03-02T09:37:51;96942.00;;;13.80
19040;BMP180;9652;49.014;12.052;2024-03-02T09:40:22;96931.00;;;13.80
19040;BMP180;9652;49.014;12.052;2024-03-02T09:42:50;96951.00;;;13.90
19040;BMP180;9652;49.014;12.052;2024-03-02T09:45:23;96931.00;;;13.90
19040;BMP180;9652;49.014;12.052;2024-03-02T09:47:51;96930.00;;;14.00
19040;BMP180;9652;49.014;12.052;2024-03-02T09:50:18;96940.00;;;14.00
19040;BMP180;9652;49.014;12.052;2024-03-02T09:52:48;96929.00;;;14.10
19040;BMP180;9652;49.014;12.052;2024-03-02T09:55:16;96945.00;;;14.10
19040;BMP180;9652;49.014;12.052;2024-03-02T09:57:45;96935.00;;;14.20
19040;BMP180;9652;49.014;12.052;2024-03-02T10:00:16;96934.00;;;14.30
19040;BMP180;9652;49.014;12.052;2024-03-02T10:02:43;96922.00;;;14.40
19040;BMP180;9652;49.014;12.052;2024-03-02T10:05:11;96894.00;;;14.50
19040;BMP180;9652;49.014;12.052;2024-03-02T10:07:38;96922.00;;;14.50
19040;BMP180;9652;49.014;12.052;2024-03-02T10:10:16;96900.00;;;14.50
19040;BMP180;9652;49.014;12.052;2024-03-02T10:12:43;96919.00;;;14.60
19040;BMP180;9652;49.014;12.052;2024-03-02T10:15:10;96902.00;;;14.60
19040;BMP180;9652;49.014;12.052;2024-03-02T10:17:39;96905.00;;;14.60
19040;BMP180;9652;49.014;12.052;2024-03-02T10:20:22;96917.00;;;14.60
19040;BMP180;9652;49.014;12.052;2024-03-02T10:22:50;96920.00;;;14.60
19040;BMP180;9652;49.014;12.052;2024-03-02T10:25:29;96906.00;;;14.60
19040;BMP180;9652;49.014;12.052;2024-03-02T10:27:58;96917.00;;;14.60
19040;BMP180;9652;49.014;12.052;2024-03-02T10:30:26;96914.00;;;14.60
19040;BMP180;9652;49.014;12.052;2024-03-02T10:32:55;96898.00;;;14.60
19040;BMP180;9652;49.014;12.052;2024-03-02T10:35:23;96916.00;;;14.60
19040;BMP180;9652;49.014;12.052;2024-03-02T10:37:52;96902.00;;;14.60
19040;BMP180;9652;49.014;12.052;2024-03-02T10:40:22;96886.00;;;14.70
19040;BMP180;9652;49.014;12.052;2024-03-02T10:42:50;96901.00;;;14.70
19040;BMP180;9652;49.014;12.052;2024-03-02T10:45:20;96908.00;;;14.80
19040;BMP180;9652;49.014;12.052;2024-03-02T10:47:48;96878.00;;;14.90
19040;BMP180;9652;49.014;12.052;2024-03-02T10:50:17;96892.00;;;15.00
19040;BMP180;9652;49.014;12.052;2024-03-02T10:52:45;96846.00;;;15.00
19040;BMP180;9652;49.014;12.052;2024-03-02T10:55:13;96902.00;;;15.10
19040;BMP180;9652;49.014;12.052;2024-03-02T10:57:51;96903.00;;;15.10
19040;BMP180;9652;49.014;12.052;2024-03-02T11:00:20;96893.00;;;15.10
19040;BMP180;9652;49.014;12.052;2024-03-02T11:02:55;96866.00;;;15.20
19040;BMP180;9652;49.014;12.052;2024-03-02T11:05:29;96884.00;;;15.20
19040;BMP180;9652;49.014;12.052;2024-03-02T11:08:06;96880.00;;;15.20
19040;BMP180;9652;49.014;12.052;2024-03-02T11:10:36;96879.00;;;15.20
19040;BMP180;9652;49.014;12.052;2024-03-02T11:13:09;96850.00;;;15.30
19040;BMP180;9652;49.014;12.052;2024-03-02T11:15:36;96816.00;;;15.40
19040;BMP180;9652;49.014;12.052;2024-03-02T11:18:05;96875.00;;;15.40
19040;BMP180;9652;49.014;12.052;2024-03-02T11:20:38;96859.00;;;15.50
19040;BMP180;9652;49.014;12.052;2024-03-02T11:23:06;96867.00;;;15.60
19040;BMP180;9652;49.014;12.052;2024-03-02T11:25:33;96864.00;;;15.60
19040;BMP180;9652;49.014;12.052;2024-03-02T11:28:03;96853.00;;;15.70
19040;BMP180;9652;49.014;12.052;2024-03-02T11:30:49;96850.00;;;15.70
19040;BMP180;9652;49.014;12.052;2024-03-02T11:33:26;96839.00;;;15.70
19040;BMP180;9652;49.014;12.052;2024-03-02T11:35:57;96875.00;;;15.70
19040;BMP180;9652;49.014;12.052;2024-03-02T11:38:30;96846.00;;;15.70
19040;BMP180;9652;49.014;12.052;2024-03-02T11:41:00;96845.00;;;15.80
19040;BMP180;9652;49.014;12.052;2024-03-02T11:43:28;96843.00;;;15.80
19040;BMP180;9652;49.014;12.052;2024-03-02T11:45:59;96842.00;;;15.80
19040;BMP180;9652;49.014;12.052;2024-03-02T11:48:30;96842.00;;;15.90
19040;BMP180;9652;49.014;12.052;2024-03-02T11:51:01;96807.00;;;15.90
19040;BMP180;9652;49.014;12.052;2024-03-02T11:53:28;96828.00;;;15.90
19040;BMP180;9652;49.014;12.052;2024-03-02T11:55:58;96792.00;;;15.90
19040;BMP180;9652;49.014;12.052;2024-03-02T11:58:27;96826.00;;;15.90
19040;BMP180;9652;49.014;12.052;2024-03-02T12:00:55;96821.00;;;16.00
19040;BMP180;9652;49.014;12.052;2024-03-02T12:03:25;96809.00;;;16.00
19040;BMP180;9652;49.014;12.052;2024-03-02T12:05:53;96799.00;;;16.00
19040;BMP180;9652;49.014;12.052;2024-03-02T12:08:22;96822.00;;;16.00
19040;BMP180;9652;49.014;12.052;2024-03-02T12:11:00;96767.00;;;16.00
19040;BMP180;9652;49.014;12.052;2024-03-02T12:13:27;96820.00;;;16.00
19040;BMP180;9652;49.014;12.052;2024-03-02T12:15:55;96815.00;;;16.00
19040;BMP180;9652;49.014;12.052;2024-03-02T12:18:23;96769.00;;;16.00
19040;BMP180;9652;49.014;12.052;2024-03-02T12:20:51;96800.00;;;16.00
19040;BMP180;9652;49.014;12.052;2024-03-02T12:23:23;96811.00;;;16.10
19040;BMP180;9652;49.014;12.052;2024-03-02T12:25:51;96800.00;;;16.10
19040;BMP180;9652;49.014;12.052;2024-03-02T12:28:19;96803.00;;;16.20
19040;BMP180;9652;49.014;12.052;2024-03-02T12:30:46;96786.00;;;16.30
19040;BMP180;9652;49.014;12.052;2024-03-02T12:33:14;96793.00;;;16.30
19040;BMP180;9652;49.014;12.052;2024-03-02T12:35:41;96790.00;;;16.20
19040;BMP180;9652;49.014;12.052;2024-03-02T12:38:10;96786.00;;;16.20
19040;BMP180;9652;49.014;12.052;2024-03-02T12:40:39;96782.00;;;16.20
19040;BMP180;9652;49.014;12.052;2024-03-02T12:43:06;96779.00;;;16.20
19040;BMP180;9652;49.014;12.052;2024-03-02T12:45:34;96733.00;;;16.20
19040;BMP180;9652;49.014;12.052;2024-03-02T12:48:01;96772.00;;;16.30
19040;BMP180;9652;49.014;12.052;2024-03-02T12:50:28;96764.00;;;16.30
19040;BMP180;9652;49.014;12.052;2024-03-02T12:52:56;96766.00;;;16.40
19040;BMP180;9652;49.014;12.052;2024-03-02T12:55:24;96759.00;;;16.50
19040;BMP180;9652;49.014;12.052;2024-03-02T12:57:53;96674.00;;;16.60
19040;BMP180;9652;49.014;12.052;2024-03-02T13:00:21;96754.00;;;16.70
19040;BMP180;9652;49.014;12.052;2024-03-02T13:02:50;96756.00;;;16.80
19040;BMP180;9652;49.014;12.052;2024-03-02T13:05:17;96755.00;;;16.80
19040;BMP180;9652;49.014;12.052;2024-03-02T13:07:47;96707.00;;;16.90
19040;BMP180;9652;49.014;12.052;2024-03-02T13:10:14;96751.00;;;16.90
19040;BMP180;9652;49.014;12.052;2024-03-02T13:12:41;96739.00;;;17.00
19040;BMP180;9652;49.014;12.052;2024-03-02T13:15:10;96752.00;;;17.10
19040;BMP180;9652;49.014;12.052;2024-03-02T13:17:38;96740.00;;;17.10
19040;BMP180;9652;49.014;12.052;2024-03-02T13:20:07;96732.00;;;17.20
19040;BMP180;9652;49.014;12.052;2024-03-02T13:22:36;96745.00;;;17.20
19040;BMP180;9652;49.014;12.052;2024-03-02T13:25:04;96748.00;;;17.20
19040;BMP180;9652;49.014;12.052;2024-03-02T13:27:34;96734.00;;;17.20
19040;BMP180;9652;49.014;12.052;2024-03-02T13:30:03;96731.00;;;17.20
19040;BMP180;9652;49.014;12.052;2024-03-02T13:32:33;96723.00;;;17.10
19040;BMP180;9652;49.014;12.052;2024-03-02T13:35:00;96736.00;;;17.00
19040;BMP180;9652;49.014;12.052;2024-03-02T13:37:28;96740.00;;;17.00
19040;BMP180;9652;49.014;12.052;2024-03-02T13:39:55;96731.00;;;16.80
19040;BMP180;9652;49.014;12.052;2024-03-02T13:42:23;96733.00;;;16.70
19040;BMP180;9652;49.014;12.052;2024-03-02T13:44:50;96734.00;;;16.60
19040;BMP180;9652;49.014;12.052;2024-03-02T13:47:18;96720.00;;;16.50
19040;BMP180;9652;49.014;12.052;2024-03-02T13:49:48;96677.00;;;16.40
19040;BMP180;9652;49.014;12.052;2024-03-02T13:52:15;96725.00;;;16.30
19040;BMP180;9652;49.014;12.052;2024-03-02T13:54:44;96723.00;;;16.30
19040;BMP180;9652;49.014;12.052;2024-03-02T13:57:11;96715.00;;;16.40
19040;BMP180;9652;49.014;12.052;2024-03-02T13:59:40;96720.00;;;16.40
19040;BMP180;9652;49.014;12.052;2024-03-02T14:02:08;96704.00;;;16.40
19040;BMP180;9652;49.014;12.052;2024-03-02T14:04:36;96713.00;;;15.90
19040;BMP180;9652;49.014;12.052;2024-03-02T14:07:06;96716.00;;;16.20
19040;BMP180;9652;49.014;12.052;2024-03-02T14:09:33;96711.00;;;16.20
19040;BMP180;9652;49.014;12.052;2024-03-02T14:12:01;96690.00;;;16.10
19040;BMP180;9652;49.014;12.052;2024-03-02T14:14:29;96668.00;;;16.00
19040;BMP180;9652;49.014;12.052;2024-03-02T14:16:56;96709.00;;;15.90